Time;durP1;ratioP1;P1;durP2;ratioP2;P2;SDS_P1;SDS_P2;PMS_P1;PMS_P2;Temp;Humidity;BMP_temperature;BMP_pressure;BME280_temperature;BME280_humidity;BME280_pressure;Samples;Min_cycle;Max_cycle;Signal;HPM_P1;HPM_P2
2022/09/29 00:00:47;;;;;;;9.30;4.85;;;;;;;;;;4995991;28;20050;-66
2022/09/29 00:03:14;;;;;;;10.18;4.25;;;;;;;;;;4996189;28;20104;-67
2022/09/29 00:05:49;;;;;;;6.40;4.25;;;;;;;;;;4996214;28;20090;-66
2022/09/29 00:08:16;;;;;;;9.38;4.50;;;;;;;;;;4995938;28;20065;-67
2022/09/29 00:10:43;;;;;;;7.15;4.40;;;;;;;;;;4996005;28;20050;-67
2022/09/29 00:13:10;;;;;;;5.55;3.53;;;;;;;;;;4994960;28;20050;-66
2022/09/29 00:15:36;;;;;;;6.82;3.33;;;;;;;;;;4976474;28;20469;-67
2022/09/29 00:18:03;;;;;;;3.10;2.80;;;;;;;;;;4976288;28;20075;-68
2022/09/29 00:20:58;;;;;;;3.42;3.00;;;;;;;;;;4976540;28;20054;-67
2022/09/29 00:23:25;;;;;;;5.28;3.33;;;;;;;;;;4976944;28;20046;-67
2022/09/29 00:26:11;;;;;;;4.22;3.28;;;;;;;;;;4976236;28;20058;-67
2022/09/29 00:28:40;;;;;;;5.05;2.80;;;;;;;;;;4982611;28;20093;-67
2022/09/29 00:31:08;;;;;;;3.80;2.80;;;;;;;;;;4995726;28;20117;-67
2022/09/29 00:33:36;;;;;;;4.57;2.95;;;;;;;;;;4978365;28;20060;-67
2022/09/29 00:36:05;;;;;;;3.95;2.70;;;;;;;;;;4995436;28;20564;-67
2022/09/29 00:38:32;;;;;;;4.78;2.70;;;;;;;;;;4995554;28;20109;-67
2022/09/29 00:40:59;;;;;;;4.75;2.50;;;;;;;;;;4995616;28;20100;-67
2022/09/29 00:44:11;;;;;;;5.93;2.60;;;;;;;;;;4994792;28;20054;-67
2022/09/29 00:46:49;;;;;;;2.78;2.30;;;;;;;;;;4972742;28;20046;-67
2022/09/29 00:49:22;;;;;;;3.45;2.50;;;;;;;;;;4995249;28;20050;-67
2022/09/29 00:51:58;;;;;;;3.58;2.38;;;;;;;;;;4994225;28;20050;-66
2022/09/29 00:54:28;;;;;;;3.53;2.17;;;;;;;;;;4978072;28;20058;-67
2022/09/29 00:56:55;;;;;;;5.68;2.75;;;;;;;;;;4994419;28;20097;-67
2022/09/29 00:59:27;;;;;;;2.97;2.60;;;;;;;;;;4994093;28;20053;-67
2022/09/29 01:01:54;;;;;;;3.33;2.30;;;;;;;;;;4978053;28;20096;-67
2022/09/29 01:04:21;;;;;;;2.88;2.50;;;;;;;;;;4994117;28;20058;-67
2022/09/29 01:06:53;;;;;;;3.70;3.00;;;;;;;;;;4995322;28;20054;-67
2022/09/29 01:09:22;;;;;;;2.78;2.42;;;;;;;;;;4994892;28;20394;-67
2022/09/29 01:11:53;;;;;;;7.65;2.55;;;;;;;;;;4977832;28;20051;-66
2022/09/29 01:14:20;;;;;;;3.50;2.55;;;;;;;;;;4994910;28;20054;-67
2022/09/29 01:16:47;;;;;;;3.85;2.65;;;;;;;;;;4977698;28;20054;-68
2022/09/29 01:19:18;;;;;;;4.40;3.25;;;;;;;;;;4994393;28;20050;-67
2022/09/29 01:22:00;;;;;;;5.07;2.80;;;;;;;;;;4977610;28;20453;-67
2022/09/29 01:24:51;;;;;;;5.47;2.85;;;;;;;;;;4993508;28;20097;-67
2022/09/29 01:27:21;;;;;;;3.72;2.45;;;;;;;;;;4992863;28;20047;-68
2022/09/29 01:30:08;;;;;;;3.90;2.85;;;;;;;;;;4994459;28;20104;-67
2022/09/29 01:32:56;;;;;;;4.72;2.92;;;;;;;;;;4977315;28;20053;-67
2022/09/29 01:35:36;;;;;;;4.57;3.08;;;;;;;;;;4994690;28;20137;-67
2022/09/29 01:38:07;;;;;;;5.32;3.00;;;;;;;;;;4993349;28;20137;-67
2022/09/29 01:40:39;;;;;;;5.35;3.15;;;;;;;;;;4993365;28;20090;-67
2022/09/29 01:43:29;;;;;;;4.75;3.05;;;;;;;;;;4994591;28;20109;-67
2022/09/29 01:46:02;;;;;;;4.13;2.80;;;;;;;;;;4977230;28;20141;-66
2022/09/29 01:48:36;;;;;;;6.03;3.08;;;;;;;;;;4977080;28;20108;-66
2022/09/29 01:51:06;;;;;;;4.63;3.00;;;;;;;;;;4977008;28;20084;-67
2022/09/29 01:53:39;;;;;;;4.00;2.88;;;;;;;;;;4994496;28;20146;-67
2022/09/29 01:56:13;;;;;;;5.00;3.17;;;;;;;;;;4993029;28;20456;-67
2022/09/29 01:58:55;;;;;;;4.22;3.00;;;;;;;;;;4992907;28;20164;-67
2022/09/29 02:01:24;;;;;;;6.38;3.10;;;;;;;;;;4993115;28;20572;-67
2022/09/29 02:04:00;;;;;;;4.47;3.30;;;;;;;;;;4976540;28;20094;-67
2022/09/29 02:06:30;;;;;;;4.47;3.30;;;;;;;;;;4993564;28;20089;-68
2022/09/29 02:08:57;;;;;;;8.73;3.60;;;;;;;;;;4960938;28;20077;-68
2022/09/29 02:11:25;;;;;;;5.30;3.72;;;;;;;;;;4976672;28;20421;-67
2022/09/29 02:14:15;;;;;;;7.53;3.38;;;;;;;;;;4961303;28;20568;-66
2022/09/29 02:16:48;;;;;;;5.43;3.70;;;;;;;;;;4962986;28;20072;-67
2022/09/29 02:19:17;;;;;;;6.57;3.72;;;;;;;;;;4976456;28;20078;-66
2022/09/29 02:21:44;;;;;;;10.18;4.22;;;;;;;;;;4994026;28;20042;-66
2022/09/29 02:24:11;;;;;;;5.55;3.58;;;;;;;;;;4976615;28;20050;-67
2022/09/29 02:26:39;;;;;;;5.68;3.60;;;;;;;;;;4976742;28;20080;-67
2022/09/29 02:29:06;;;;;;;3.95;3.30;;;;;;;;;;4993640;28;20109;-67
2022/09/29 02:31:33;;;;;;;4.82;3.70;;;;;;;;;;4976955;28;20078;-66
2022/09/29 02:34:00;;;;;;;6.68;3.60;;;;;;;;;;4976496;28;20141;-66
2022/09/29 02:36:45;;;;;;;6.07;3.95;;;;;;;;;;4976539;28;20135;-66
2022/09/29 02:39:22;;;;;;;4.15;3.72;;;;;;;;;;4975640;28;20100;-67
2022/09/29 02:42:35;;;;;;;5.65;3.60;;;;;;;;;;4993441;28;20564;-67
2022/09/29 02:45:22;;;;;;;6.70;3.40;;;;;;;;;;4970784;28;20124;-67
2022/09/29 02:48:11;;;;;;;4.10;3.70;;;;;;;;;;4975972;28;20081;-67
2022/09/29 02:51:01;;;;;;;5.78;3.78;;;;;;;;;;4992317;28;20116;-67
2022/09/29 02:53:40;;;;;;;4.47;3.50;;;;;;;;;;4993264;28;20105;-67
2022/09/29 02:56:20;;;;;;;6.28;4.00;;;;;;;;;;4993121;28;20046;-67
2022/09/29 02:59:08;;;;;;;8.30;3.80;;;;;;;;;;4991734;28;20077;-67
2022/09/29 03:01:46;;;;;;;5.70;4.13;;;;;;;;;;4975860;28;20098;-67
2022/09/29 03:04:13;;;;;;;5.95;4.05;;;;;;;;;;4991952;28;20050;-67
2022/09/29 03:06:40;;;;;;;6.32;3.90;;;;;;;;;;4993106;28;20124;-66
2022/09/29 03:09:06;;;;;;;5.82;3.80;;;;;;;;;;4992828;28;20085;-67
2022/09/29 03:11:33;;;;;;;8.25;3.80;;;;;;;;;;4992822;28;20465;-68
2022/09/29 03:13:59;;;;;;;7.03;3.85;;;;;;;;;;4992882;28;20516;-68
2022/09/29 03:16:26;;;;;;;7.00;3.53;;;;;;;;;;4991892;28;20058;-68
2022/09/29 03:18:54;;;;;;;6.90;3.53;;;;;;;;;;5015249;23;20527;-67
2022/09/29 03:21:20;;;;;;;4.10;3.40;;;;;;;;;;4993114;28;20050;-67
2022/09/29 03:23:47;;;;;;;7.90;4.30;;;;;;;;;;4975689;28;20046;-67
2022/09/29 03:26:14;;;;;;;5.32;3.17;;;;;;;;;;4992814;28;20112;-67
2022/09/29 03:28:41;;;;;;;5.10;3.13;;;;;;;;;;4992245;28;20077;-68
2022/09/29 03:31:08;;;;;;;5.57;3.30;;;;;;;;;;4992696;28;20512;-67
2022/09/29 03:33:37;;;;;;;5.25;3.97;;;;;;;;;;4992936;28;20413;-67
2022/09/29 03:36:05;;;;;;;7.22;3.47;;;;;;;;;;4992929;28;20108;-67
2022/09/29 03:38:32;;;;;;;5.20;3.60;;;;;;;;;;4975572;28;20105;-67
2022/09/29 03:40:58;;;;;;;9.50;3.80;;;;;;;;;;4975333;28;20053;-68
2022/09/29 03:43:25;;;;;;;7.60;4.13;;;;;;;;;;4992402;28;20398;-67
2022/09/29 03:45:54;;;;;;;5.03;3.80;;;;;;;;;;4992644;28;20108;-67
2022/09/29 03:48:21;;;;;;;6.50;3.78;;;;;;;;;;4992484;28;20058;-67
2022/09/29 03:50:50;;;;;;;6.22;3.80;;;;;;;;;;4992533;28;20054;-67
2022/09/29 03:53:17;;;;;;;6.38;3.55;;;;;;;;;;4975328;28;20047;-67
2022/09/29 03:55:47;;;;;;;4.63;3.38;;;;;;;;;;4990403;28;20058;-67
2022/09/29 03:58:15;;;;;;;6.70;3.60;;;;;;;;;;4975988;28;20509;-67
2022/09/29 04:00:41;;;;;;;4.82;3.28;;;;;;;;;;4959686;28;20085;-67
2022/09/29 04:03:08;;;;;;;5.82;3.60;;;;;;;;;;4992643;28;20046;-67
2022/09/29 04:05:38;;;;;;;4.68;3.70;;;;;;;;;;4975536;28;20101;-68
2022/09/29 04:08:05;;;;;;;4.45;3.25;;;;;;;;;;4991294;28;20078;-67
2022/09/29 04:10:38;;;;;;;5.88;4.00;;;;;;;;;;4973198;28;20050;-67
2022/09/29 04:13:05;;;;;;;4.55;3.50;;;;;;;;;;4972988;28;20047;-67
2022/09/29 04:15:32;;;;;;;7.15;3.83;;;;;;;;;;4972828;28;20498;-67
2022/09/29 04:17:59;;;;;;;8.02;4.30;;;;;;;;;;4972530;28;20054;-67
2022/09/29 04:20:26;;;;;;;6.00;4.15;;;;;;;;;;4973070;28;20129;-67
2022/09/29 04:22:52;;;;;;;8.50;4.35;;;;;;;;;;4973145;28;20403;-67
2022/09/29 04:25:19;;;;;;;6.03;3.80;;;;;;;;;;4972995;28;20097;-67
2022/09/29 04:27:46;;;;;;;5.68;4.10;;;;;;;;;;4972977;28;20494;-68
2022/09/29 04:30:12;;;;;;;7.45;4.00;;;;;;;;;;4972930;28;20047;-68
2022/09/29 04:32:39;;;;;;;5.70;3.60;;;;;;;;;;4955414;28;20074;-67
2022/09/29 04:35:06;;;;;;;4.15;3.75;;;;;;;;;;4972986;28;20077;-67
2022/09/29 04:37:33;;;;;;;3.90;3.50;;;;;;;;;;4972638;28;20399;-68
2022/09/29 04:40:01;;;;;;;4.85;3.97;;;;;;;;;;4976045;28;20090;-67
2022/09/29 04:42:28;;;;;;;6.30;4.20;;;;;;;;;;4959336;28;20043;-67
2022/09/29 04:44:54;;;;;;;6.10;3.83;;;;;;;;;;4976891;28;20101;-68
2022/09/29 04:47:21;;;;;;;6.55;4.30;;;;;;;;;;4976385;28;20050;-67
2022/09/29 04:49:47;;;;;;;6.13;3.85;;;;;;;;;;4976022;28;20055;-67
2022/09/29 04:52:14;;;;;;;5.13;4.18;;;;;;;;;;4976181;28;20047;-67
2022/09/29 04:54:41;;;;;;;6.03;4.65;;;;;;;;;;4976438;28;20482;-67
2022/09/29 04:57:09;;;;;;;7.57;5.22;;;;;;;;;;4976298;28;20054;-67
2022/09/29 04:59:36;;;;;;;7.20;5.40;;;;;;;;;;4958820;28;20054;-67
2022/09/29 05:02:02;;;;;;;9.32;6.18;;;;;;;;;;4984082;28;20101;-68
2022/09/29 05:04:29;;;;;;;11.35;7.95;;;;;;;;;;4995514;28;20572;-68
2022/09/29 05:06:56;;;;;;;10.40;8.27;;;;;;;;;;4995937;28;20050;-68
2022/09/29 05:09:22;;;;;;;8.93;7.70;;;;;;;;;;4978030;28;20050;-68
2022/09/29 05:11:50;;;;;;;10.00;7.40;;;;;;;;;;4995311;28;20057;-67
2022/09/29 05:14:17;;;;;;;9.07;7.30;;;;;;;;;;4995333;28;20489;-67
2022/09/29 05:16:44;;;;;;;8.00;6.63;;;;;;;;;;4995580;28;20101;-67
2022/09/29 05:19:10;;;;;;;7.65;6.20;;;;;;;;;;4995034;28;20054;-67
2022/09/29 05:21:37;;;;;;;9.15;6.20;;;;;;;;;;4995272;28;20085;-68
2022/09/29 05:24:04;;;;;;;8.88;6.82;;;;;;;;;;4995321;28;20394;-67
2022/09/29 05:26:31;;;;;;;7.68;6.35;;;;;;;;;;4995352;28;20489;-67
2022/09/29 05:28:57;;;;;;;19.35;5.95;;;;;;;;;;4994655;28;20090;-67
2022/09/29 05:31:24;;;;;;;8.75;4.93;;;;;;;;;;4995030;28;20120;-68
2022/09/29 05:33:51;;;;;;;10.43;5.30;;;;;;;;;;4994757;28;20129;-67
2022/09/29 05:36:17;;;;;;;6.43;4.72;;;;;;;;;;4995586;28;20120;-67
2022/09/29 05:38:44;;;;;;;7.75;5.05;;;;;;;;;;4977416;28;20054;-67
2022/09/29 05:41:12;;;;;;;7.35;5.05;;;;;;;;;;4995037;28;20050;-67
2022/09/29 05:43:39;;;;;;;7.68;5.32;;;;;;;;;;4994715;28;20046;-67
2022/09/29 05:46:07;;;;;;;8.52;5.60;;;;;;;;;;4994729;28;20050;-68
2022/09/29 05:48:34;;;;;;;6.90;4.78;;;;;;;;;;4983187;28;20046;-67
2022/09/29 05:51:12;;;;;;;10.07;5.13;;;;;;;;;;4982661;28;20521;-67
2022/09/29 05:53:40;;;;;;;7.63;5.13;;;;;;;;;;4983658;28;20054;-68
2022/09/29 05:56:11;;;;;;;11.70;4.93;;;;;;;;;;4984141;28;20449;-68
2022/09/29 05:58:38;;;;;;;7.90;4.88;;;;;;;;;;4976748;28;20399;-66
2022/09/29 06:01:25;;;;;;;6.28;4.38;;;;;;;;;;4984877;28;20058;-66
2022/09/29 06:03:55;;;;;;;6.85;4.80;;;;;;;;;;4992516;28;20340;-66
2022/09/29 06:06:24;;;;;;;6.47;4.38;;;;;;;;;;4992376;28;20101;-65
2022/09/29 06:08:51;;;;;;;7.90;4.70;;;;;;;;;;4991268;28;20046;-65
2022/09/29 06:11:20;;;;;;;6.13;4.40;;;;;;;;;;4992146;28;20128;-65
2022/09/29 06:13:48;;;;;;;6.53;4.28;;;;;;;;;;4991605;28;20054;-66
2022/09/29 06:16:16;;;;;;;5.20;3.95;;;;;;;;;;4992043;28;20054;-66
2022/09/29 06:18:43;;;;;;;6.55;4.38;;;;;;;;;;4991551;28;20089;-67
2022/09/29 06:21:14;;;;;;;6.57;4.95;;;;;;;;;;4992177;28;20077;-66
2022/09/29 06:23:40;;;;;;;7.15;5.25;;;;;;;;;;4991830;28;20046;-66
2022/09/29 06:26:09;;;;;;;8.98;5.20;;;;;;;;;;4991468;28;20054;-66
2022/09/29 06:28:36;;;;;;;12.75;6.30;;;;;;;;;;4991839;28;20137;-65
2022/09/29 06:31:05;;;;;;;8.10;5.35;;;;;;;;;;4994218;28;20049;-66
2022/09/29 06:33:33;;;;;;;9.48;5.00;;;;;;;;;;4991907;28;20050;-66
2022/09/29 06:39:10;;;;;;;9.00;4.65;;;;;;;;;;4991014;28;20062;-65
2022/09/29 06:41:37;;;;;;;5.80;4.32;;;;;;;;;;4991561;28;20605;-65
2022/09/29 06:44:03;;;;;;;7.88;4.55;;;;;;;;;;4991502;28;20047;-65
2022/09/29 06:46:30;;;;;;;9.65;4.85;;;;;;;;;;4991615;28;20108;-65
2022/09/29 06:48:57;;;;;;;7.82;4.10;;;;;;;;;;4991176;28;20086;-66
2022/09/29 06:51:24;;;;;;;6.22;4.60;;;;;;;;;;4991047;28;20050;-66
2022/09/29 06:54:03;;;;;;;6.10;4.88;;;;;;;;;;4991532;28;20046;-65
2022/09/29 06:56:37;;;;;;;7.28;4.00;;;;;;;;;;4991775;28;20484;-65
2022/09/29 06:59:04;;;;;;;6.07;4.53;;;;;;;;;;4991204;28;20090;-66
2022/09/29 07:01:31;;;;;;;5.95;4.05;;;;;;;;;;4990434;28;20101;-65
2022/09/29 07:03:59;;;;;;;5.60;4.10;;;;;;;;;;4990786;28;20078;-66
2022/09/29 07:06:27;;;;;;;5.85;4.00;;;;;;;;;;4990842;28;20095;-66
2022/09/29 07:08:57;;;;;;;7.13;3.47;;;;;;;;;;4991080;28;20104;-66
2022/09/29 07:11:25;;;;;;;7.80;4.07;;;;;;;;;;4973825;28;20058;-65
2022/09/29 07:13:52;;;;;;;4.85;3.40;;;;;;;;;;4991138;28;20105;-66
2022/09/29 07:16:22;;;;;;;5.95;3.75;;;;;;;;;;4983445;28;20058;-67
2022/09/29 07:18:50;;;;;;;6.80;3.38;;;;;;;;;;4984562;28;20262;-64
2022/09/29 07:21:17;;;;;;;7.43;4.00;;;;;;;;;;4988490;28;20509;-64
2022/09/29 07:23:44;;;;;;;5.85;3.88;;;;;;;;;;4967449;28;20050;-64
2022/09/29 07:26:11;;;;;;;5.85;4.15;;;;;;;;;;4980718;28;20536;-65
2022/09/29 07:28:38;;;;;;;6.80;3.90;;;;;;;;;;4982936;28;20051;-65
2022/09/29 07:31:07;;;;;;;8.77;3.85;;;;;;;;;;4985678;28;20489;-65
2022/09/29 07:33:41;;;;;;;6.68;3.83;;;;;;;;;;4981376;28;20053;-65
2022/09/29 07:36:08;;;;;;;5.47;3.85;;;;;;;;;;4981710;28;20086;-65
2022/09/29 07:38:35;;;;;;;7.07;3.58;;;;;;;;;;4982707;28;20094;-66
2022/09/29 07:41:03;;;;;;;5.15;3.58;;;;;;;;;;4978508;28;20086;-65
2022/09/29 07:43:30;;;;;;;6.03;4.20;;;;;;;;;;4978426;28;20129;-67
2022/09/29 07:45:59;;;;;;;9.68;4.10;;;;;;;;;;4978494;28;20050;-67
2022/09/29 07:48:26;;;;;;;8.68;5.43;;;;;;;;;;4979952;28;20054;-65
2022/09/29 07:51:10;;;;;;;6.03;4.15;;;;;;;;;;4975738;28;20046;-71
2022/09/29 07:53:36;;;;;;;8.13;4.47;;;;;;;;;;4936942;28;20038;-70
2022/09/29 07:56:05;;;;;;;8.60;4.40;;;;;;;;;;4986365;28;20109;-71
2022/09/29 07:58:32;;;;;;;7.25;4.30;;;;;;;;;;4963805;28;20042;-73
2022/09/29 08:01:00;;;;;;;6.75;4.50;;;;;;;;;;4988386;28;20054;-73
2022/09/29 08:03:28;;;;;;;6.82;4.30;;;;;;;;;;4987858;28;20121;-74
2022/09/29 08:05:56;;;;;;;5.07;3.35;;;;;;;;;;4987432;28;20486;-75
2022/09/29 08:08:23;;;;;;;8.90;4.50;;;;;;;;;;4986919;28;20117;-75
2022/09/29 08:10:51;;;;;;;5.72;4.10;;;;;;;;;;4983078;28;20054;-75
2022/09/29 08:13:19;;;;;;;5.50;4.05;;;;;;;;;;4978138;28;20454;-70
2022/09/29 08:15:46;;;;;;;9.43;5.20;;;;;;;;;;4990345;28;20058;-69
2022/09/29 08:18:12;;;;;;;9.93;4.88;;;;;;;;;;4983587;28;20054;-69
2022/09/29 08:20:39;;;;;;;7.10;4.60;;;;;;;;;;4984588;28;20047;-71
2022/09/29 08:23:06;;;;;;;6.93;4.65;;;;;;;;;;4984412;28;20085;-68
2022/09/29 08:25:35;;;;;;;9.02;5.07;;;;;;;;;;4987754;28;20050;-67
2022/09/29 08:28:01;;;;;;;6.50;4.72;;;;;;;;;;4986692;28;20050;-68
2022/09/29 08:30:28;;;;;;;8.18;4.18;;;;;;;;;;4988271;28;20391;-67
2022/09/29 08:32:55;;;;;;;6.70;4.57;;;;;;;;;;4992614;28;20050;-67
2022/09/29 08:35:22;;;;;;;5.97;4.40;;;;;;;;;;4987012;28;20153;-66
2022/09/29 08:37:49;;;;;;;4.68;4.15;;;;;;;;;;4986237;28;21055;-67
2022/09/29 08:40:16;;;;;;;6.30;3.67;;;;;;;;;;4989005;28;20097;-67
2022/09/29 08:43:08;;;;;;;9.70;4.22;;;;;;;;;;4949067;28;20453;-67
2022/09/29 08:45:38;;;;;;;5.20;3.72;;;;;;;;;;4951571;28;20124;-68
2022/09/29 08:48:23;;;;;;;8.30;3.75;;;;;;;;;;4948386;28;20446;-68
2022/09/29 08:51:03;;;;;;;5.43;3.95;;;;;;;;;;4985010;28;20050;-67
2022/09/29 08:53:32;;;;;;;7.47;3.70;;;;;;;;;;4983974;28;20047;-68
2022/09/29 08:56:04;;;;;;;3.53;3.05;;;;;;;;;;4959597;28;20413;-68
2022/09/29 08:58:32;;;;;;;3.00;2.70;;;;;;;;;;4993916;28;20082;-67
2022/09/29 09:01:34;;;;;;;3.53;2.78;;;;;;;;;;4975822;28;20050;-67
2022/09/29 09:04:29;;;;;;;5.20;3.20;;;;;;;;;;4972850;28;20050;-71
2022/09/29 09:06:58;;;;;;;3.50;3.20;;;;;;;;;;4973569;28;20161;-70
2022/09/29 09:09:38;;;;;;;6.50;3.20;;;;;;;;;;4992710;28;20050;-70
2022/09/29 09:12:31;;;;;;;5.22;3.50;;;;;;;;;;4976328;28;20058;-67
2022/09/29 09:15:16;;;;;;;4.35;3.28;;;;;;;;;;4976224;28;20093;-68
2022/09/29 09:18:07;;;;;;;5.28;2.90;;;;;;;;;;4965070;28;20076;-68
2022/09/29 09:20:35;;;;;;;7.18;3.70;;;;;;;;;;5002563;23;20050;-72
2022/09/29 09:23:35;;;;;;;5.18;3.35;;;;;;;;;;4948069;28;20505;-77
2022/09/29 09:26:03;;;;;;;4.10;3.00;;;;;;;;;;4982885;28;20050;-73
2022/09/29 09:28:32;;;;;;;5.55;2.78;;;;;;;;;;4989514;28;20046;-76
2022/09/29 09:31:02;;;;;;;5.53;3.00;;;;;;;;;;4941280;28;20051;-75
2022/09/29 09:33:48;;;;;;;4.35;2.58;;;;;;;;;;4937723;28;20102;-75
2022/09/29 09:36:49;;;;;;;4.75;2.42;;;;;;;;;;4967234;28;20062;-71
2022/09/29 09:39:44;;;;;;;4.78;2.65;;;;;;;;;;4948121;28;20477;-72
2022/09/29 09:42:20;;;;;;;2.78;2.10;;;;;;;;;;4957203;28;20047;-72
2022/09/29 09:44:49;;;;;;;4.65;2.40;;;;;;;;;;4944577;28;20054;-72
2022/09/29 09:47:27;;;;;;;4.75;2.60;;;;;;;;;;4926108;28;20051;-72
2022/09/29 09:53:03;;;;;;;4.70;2.65;;;;;;;;;;4927012;29;20051;-72
2022/09/29 09:55:35;;;;;;;4.50;2.45;;;;;;;;;;4938879;28;20063;-73
2022/09/29 09:58:12;;;;;;;8.10;3.23;;;;;;;;;;4928456;29;20759;-68
2022/09/29 10:01:00;;;;;;;3.88;2.30;;;;;;;;;;4934001;29;20450;-69
2022/09/29 10:03:28;;;;;;;4.43;2.92;;;;;;;;;;4964997;28;20051;-70
2022/09/29 10:05:55;;;;;;;7.22;2.95;;;;;;;;;;4947938;28;20632;-75
2022/09/29 10:08:38;;;;;;;4.13;2.53;;;;;;;;;;4936704;29;20106;-71
2022/09/29 10:11:26;;;;;;;5.18;2.67;;;;;;;;;;4934694;29;20047;-69
2022/09/29 10:14:07;;;;;;;5.95;2.97;;;;;;;;;;4952159;29;20085;-72
2022/09/29 10:16:47;;;;;;;5.80;3.03;;;;;;;;;;4956868;28;20050;-69
2022/09/29 10:19:15;;;;;;;4.07;3.35;;;;;;;;;;4942345;28;20047;-74
2022/09/29 10:21:43;;;;;;;3.60;2.40;;;;;;;;;;4947877;28;20047;-69
2022/09/29 10:24:29;;;;;;;4.65;2.30;;;;;;;;;;4949340;29;20047;-70
2022/09/29 10:26:57;;;;;;;3.85;2.40;;;;;;;;;;4947931;28;20047;-67
2022/09/29 10:29:30;;;;;;;6.13;2.72;;;;;;;;;;4945933;28;20051;-67
2022/09/29 10:32:13;;;;;;;5.82;3.13;;;;;;;;;;4958820;28;20622;-67
2022/09/29 10:34:42;;;;;;;9.80;4.45;;;;;;;;;;4943950;28;20047;-69
2022/09/29 10:37:37;;;;;;;3.92;2.47;;;;;;;;;;4947917;28;20125;-70
2022/09/29 10:40:07;;;;;;;3.38;2.03;;;;;;;;;;4949100;28;20058;-71
2022/09/29 10:42:35;;;;;;;4.00;2.25;;;;;;;;;;4946024;29;20150;-73
2022/09/29 10:45:21;;;;;;;4.80;2.25;;;;;;;;;;4946157;29;20566;-71
2022/09/29 10:48:08;;;;;;;6.80;2.38;;;;;;;;;;4952609;29;20134;-71
2022/09/29 10:50:55;;;;;;;2.90;1.90;;;;;;;;;;4951265;28;20451;-68
2022/09/29 10:53:22;;;;;;;4.28;2.22;;;;;;;;;;4948622;29;20142;-68
2022/09/29 10:55:50;;;;;;;2.72;1.90;;;;;;;;;;4949406;28;20091;-67
2022/09/29 10:58:23;;;;;;;6.43;2.30;;;;;;;;;;4948459;29;20466;-68
2022/09/29 11:01:12;;;;;;;4.60;2.05;;;;;;;;;;4945643;28;20137;-67
2022/09/29 11:03:45;;;;;;;5.40;2.15;;;;;;;;;;4960512;28;20059;-67
2022/09/29 11:06:12;;;;;;;2.15;1.67;;;;;;;;;;4949931;29;20077;-67
2022/09/29 11:08:58;;;;;;;4.68;1.85;;;;;;;;;;4948534;29;20066;-70
2022/09/29 11:11:47;;;;;;;3.40;1.30;;;;;;;;;;4947815;28;20151;-70
2022/09/29 11:14:35;;;;;;;3.72;1.80;;;;;;;;;;4948570;29;20048;-69
2022/09/29 11:17:21;;;;;;;2.85;1.70;;;;;;;;;;4948642;29;20059;-72
2022/09/29 11:19:49;;;;;;;2.72;1.70;;;;;;;;;;4950804;29;20078;-69
2022/09/29 11:22:29;;;;;;;3.00;1.13;;;;;;;;;;4966460;28;20913;-72
2022/09/29 11:25:02;;;;;;;2.95;1.73;;;;;;;;;;4943133;29;20114;-73
2022/09/29 11:27:34;;;;;;;4.05;1.65;;;;;;;;;;4950758;28;20047;-70
2022/09/29 11:30:20;;;;;;;4.82;1.50;;;;;;;;;;4951270;28;20110;-71
2022/09/29 11:32:47;;;;;;;3.50;2.03;;;;;;;;;;4948775;29;20059;-71
2022/09/29 11:35:25;;;;;;;3.83;1.98;;;;;;;;;;4952036;28;20518;-69
2022/09/29 11:38:11;;;;;;;3.83;2.20;;;;;;;;;;4942363;28;20047;-70
2022/09/29 11:40:44;;;;;;;4.30;2.08;;;;;;;;;;4951150;28;20055;-70
2022/09/29 11:43:33;;;;;;;3.65;1.63;;;;;;;;;;4951790;29;20051;-70
2022/09/29 11:46:22;;;;;;;4.05;1.88;;;;;;;;;;4944871;29;20481;-70
2022/09/29 11:49:11;;;;;;;2.42;1.27;;;;;;;;;;4949798;28;20047;-70
2022/09/29 11:51:44;;;;;;;2.22;1.35;;;;;;;;;;4950350;28;20055;-70
2022/09/29 11:54:38;;;;;;;2.67;1.50;;;;;;;;;;4945201;28;20052;-70
2022/09/29 11:57:36;;;;;;;3.00;1.25;;;;;;;;;;4949922;29;20043;-71
2022/09/29 12:00:29;;;;;;;3.60;1.23;;;;;;;;;;4949411;28;20055;-69
2022/09/29 12:03:26;;;;;;;1.92;1.27;;;;;;;;;;4949983;29;20055;-72
2022/09/29 12:06:19;;;;;;;2.83;1.30;;;;;;;;;;4950647;29;20083;-68
2022/09/29 12:09:19;;;;;;;6.10;1.50;;;;;;;;;;4949705;29;20106;-67
2022/09/29 12:12:05;;;;;;;4.65;1.70;;;;;;;;;;4966349;28;20062;-66
2022/09/29 12:15:16;;;;;;;4.22;1.30;;;;;;;;;;4951465;29;20043;-67
2022/09/29 12:17:45;;;;;;;2.97;1.27;;;;;;;;;;4951870;29;20106;-67
2022/09/29 12:20:47;;;;;;;3.13;1.25;;;;;;;;;;4944950;28;20052;-67
2022/09/29 12:23:15;;;;;;;3.60;1.27;;;;;;;;;;4947531;28;20122;-67
2022/09/29 12:25:55;;;;;;;2.70;1.50;;;;;;;;;;4946386;28;20075;-67
2022/09/29 12:28:35;;;;;;;2.28;1.00;;;;;;;;;;4944077;29;20047;-67
2022/09/29 12:31:22;;;;;;;4.20;1.23;;;;;;;;;;4960477;28;20059;-67
2022/09/29 12:33:52;;;;;;;5.75;1.40;;;;;;;;;;4948593;28;20047;-67
2022/09/29 12:36:43;;;;;;;2.58;1.52;;;;;;;;;;4959135;29;20076;-67
2022/09/29 12:39:25;;;;;;;3.20;1.10;;;;;;;;;;4940959;29;20054;-67
2022/09/29 12:41:55;;;;;;;2.72;1.20;;;;;;;;;;4965055;28;20567;-66
2022/09/29 12:44:59;;;;;;;2.50;1.30;;;;;;;;;;4951100;28;20052;-67
2022/09/29 12:48:06;;;;;;;2.88;1.50;;;;;;;;;;4949647;29;20502;-67
2022/09/29 12:50:56;;;;;;;6.10;1.48;;;;;;;;;;4952567;28;20052;-67
2022/09/29 12:54:07;;;;;;;2.92;1.02;;;;;;;;;;4927347;29;20499;-67
2022/09/29 12:56:49;;;;;;;1.38;1.02;;;;;;;;;;4946378;29;20087;-67
2022/09/29 12:59:41;;;;;;;3.78;1.20;;;;;;;;;;4936258;29;20070;-67
2022/09/29 13:02:40;;;;;;;4.63;1.30;;;;;;;;;;4933040;29;20051;-67
2022/09/29 13:05:32;;;;;;;2.58;1.20;;;;;;;;;;4948425;29;20077;-67
2022/09/29 13:08:26;;;;;;;3.73;1.57;;;;;;;;;;4949988;29;20086;-67
2022/09/29 13:11:05;;;;;;;2.17;1.38;;;;;;;;;;4940651;29;20286;-67
2022/09/29 13:14:03;;;;;;;5.43;1.60;;;;;;;;;;4942584;28;20070;-66
2022/09/29 13:16:47;;;;;;;1.63;1.10;;;;;;;;;;4953526;29;20051;-67
2022/09/29 13:19:41;;;;;;;5.00;1.95;;;;;;;;;;4950477;29;20514;-67
2022/09/29 13:22:58;;;;;;;3.30;1.10;;;;;;;;;;4953035;29;20520;-67
2022/09/29 13:25:49;;;;;;;2.15;1.17;;;;;;;;;;4944193;29;20086;-67
2022/09/29 13:28:30;;;;;;;1.45;1.30;;;;;;;;;;4939744;28;20119;-69
2022/09/29 13:31:02;;;;;;;2.53;1.40;;;;;;;;;;4946806;28;20051;-70
2022/09/29 13:33:29;;;;;;;2.45;1.10;;;;;;;;;;4945136;29;20051;-73
2022/09/29 13:35:56;;;;;;;3.42;1.58;;;;;;;;;;4967292;28;20084;-69
2022/09/29 13:38:35;;;;;;;4.35;1.40;;;;;;;;;;4947460;28;20059;-68
2022/09/29 13:41:21;;;;;;;3.20;1.40;;;;;;;;;;4946262;28;20522;-69
2022/09/29 13:43:51;;;;;;;3.80;1.40;;;;;;;;;;4944071;29;20134;-70
2022/09/29 13:46:29;;;;;;;4.40;1.50;;;;;;;;;;4943759;29;20050;-68
2022/09/29 13:49:11;;;;;;;3.85;1.60;;;;;;;;;;4938844;29;20130;-70
2022/09/29 13:51:49;;;;;;;6.47;1.75;;;;;;;;;;4940711;29;20413;-70
2022/09/29 13:54:32;;;;;;;2.70;1.33;;;;;;;;;;4943476;29;20568;-71
2022/09/29 13:56:58;;;;;;;2.70;1.45;;;;;;;;;;4934708;29;20071;-70
2022/09/29 13:59:27;;;;;;;5.20;1.50;;;;;;;;;;4941951;29;20055;-70
2022/09/29 14:01:54;;;;;;;2.33;1.70;;;;;;;;;;4933117;29;20760;-70
2022/09/29 14:04:49;;;;;;;2.40;1.50;;;;;;;;;;4932695;29;20126;-71
2022/09/29 14:07:36;;;;;;;1.95;1.00;;;;;;;;;;4947392;29;20078;-72
2022/09/29 14:10:23;;;;;;;2.78;1.20;;;;;;;;;;4948034;29;20114;-68
2022/09/29 14:13:04;;;;;;;3.45;1.50;;;;;;;;;;4946571;29;20129;-70
2022/09/29 14:15:56;;;;;;;3.42;1.17;;;;;;;;;;4952064;29;20138;-69
2022/09/29 14:18:34;;;;;;;4.55;1.50;;;;;;;;;;4952777;28;20051;-70
2022/09/29 14:21:11;;;;;;;4.20;1.85;;;;;;;;;;4949417;28;20142;-68
2022/09/29 14:23:44;;;;;;;4.40;1.92;;;;;;;;;;4946187;28;20494;-68
2022/09/29 14:27:02;;;;;;;2.13;1.50;;;;;;;;;;4952846;28;20130;-68
2022/09/29 14:29:30;;;;;;;2.63;1.30;;;;;;;;;;4940729;29;20423;-68
2022/09/29 14:31:57;;;;;;;3.58;1.40;;;;;;;;;;4941095;28;20106;-67
2022/09/29 14:34:26;;;;;;;2.72;1.25;;;;;;;;;;4948699;28;20458;-67
2022/09/29 14:36:53;;;;;;;4.07;1.20;;;;;;;;;;4952091;29;20105;-68
2022/09/29 14:39:20;;;;;;;3.38;1.73;;;;;;;;;;4949389;29;20078;-68
2022/09/29 14:42:00;;;;;;;3.55;1.60;;;;;;;;;;4952341;28;20055;-69
2022/09/29 14:53:51;;;;;;;4.43;1.10;;;;;;;;;;4950295;28;20565;-72
2022/09/29 14:56:51;;;;;;;3.03;1.45;;;;;;;;;;4950739;28;20561;-69
2022/09/29 14:59:28;;;;;;;6.32;1.45;;;;;;;;;;4963752;28;20075;-68
2022/09/29 15:02:17;;;;;;;2.20;1.23;;;;;;;;;;4950795;28;20050;-68
2022/09/29 15:04:47;;;;;;;3.10;1.00;;;;;;;;;;4953599;28;20094;-70
2022/09/29 15:07:17;;;;;;;3.78;1.95;;;;;;;;;;4951238;28;20062;-68
2022/09/29 15:09:59;;;;;;;2.53;1.10;;;;;;;;;;4947510;28;20126;-69
2022/09/29 15:12:33;;;;;;;3.33;1.20;;;;;;;;;;4950628;29;20047;-68
2022/09/29 15:15:03;;;;;;;3.05;0.95;;;;;;;;;;4949795;28;20073;-68
2022/09/29 15:17:59;;;;;;;2.33;1.10;;;;;;;;;;4951014;29;20078;-68
2022/09/29 15:20:58;;;;;;;2.13;1.33;;;;;;;;;;4947628;28;20055;-68
2022/09/29 15:23:45;;;;;;;2.08;1.40;;;;;;;;;;4949686;28;20087;-68
2022/09/29 15:26:12;;;;;;;5.22;1.40;;;;;;;;;;4937451;29;20048;-69
2022/09/29 15:28:40;;;;;;;4.07;1.38;;;;;;;;;;4951013;28;20415;-69
2022/09/29 15:31:18;;;;;;;2.20;1.40;;;;;;;;;;4951863;28;20062;-69
2022/09/29 15:33:46;;;;;;;2.20;1.00;;;;;;;;;;4964293;28;20074;-69
2022/09/29 15:36:23;;;;;;;4.97;1.05;;;;;;;;;;4950967;28;20137;-69
2022/09/29 15:38:59;;;;;;;4.88;1.23;;;;;;;;;;4947796;29;20118;-69
2022/09/29 15:41:27;;;;;;;1.83;1.42;;;;;;;;;;4950170;28;20047;-69
2022/09/29 15:44:01;;;;;;;2.47;0.90;;;;;;;;;;4936321;29;20511;-69